sensor_id;sensor_type;location;lat;lon;timestamp;pressure;altitude;pressure_sealevel;temperature;humidity
11198;BME280;5655;48.744;9.162;2023-05-19T00:01:34;96626.13;;;14.22;100.00
11198;BME280;5655;48.744;9.162;2023-05-19T00:04:02;96621.16;;;14.27;100.00
11198;BME280;5655;48.744;9.162;2023-05-19T00:06:30;96616.50;;;14.24;100.00
11198;BME280;5655;48.744;9.162;2023-05-19T00:09:01;96622.22;;;14.08;100.00
11198;BME280;5655;48.744;9.162;2023-05-19T00:11:27;96624.41;;;13.85;100.00
11198;BME280;5655;48.744;9.162;2023-05-19T00:13:55;96620.56;;;13.86;100.00
11198;BME280;5655;48.744;9.162;2023-05-19T00:16:22;96620.94;;;13.81;100.00
11198;BME280;5655;48.744;9.162;2023-05-19T00:18:48;96616.75;;;13.87;100.00
11198;BME280;5655;48.744;9.162;2023-05-19T00:21:14;96620.78;;;13.53;100.00
11198;BME280;5655;48.744;9.162;2023-05-19T00:23:39;96619.31;;;13.66;100.00
11198;BME280;5655;48.744;9.162;2023-05-19T00:26:05;96616.28;;;13.68;100.00
11198;BME280;5655;48.744;9.162;2023-05-19T00:28:30;96618.97;;;13.71;100.00
11198;BME280;5655;48.744;9.162;2023-05-19T00:30:55;96612.41;;;13.65;100.00
11198;BME280;5655;48.744;9.162;2023-05-19T00:33:21;96609.69;;;13.61;100.00
11198;BME280;5655;48.744;9.162;2023-05-19T00:35:46;96602.06;;;13.74;100.00
11198;BME280;5655;48.744;9.162;2023-05-19T00:38:12;96599.81;;;13.83;100.00
11198;BME280;5655;48.744;9.162;2023-05-19T00:40:37;96608.66;;;13.80;100.00
11198;BME280;5655;48.744;9.162;2023-05-19T00:43:02;96605.03;;;13.55;100.00
11198;BME280;5655;48.744;9.162;2023-05-19T00:45:30;96598.03;;;13.40;100.00
11198;BME280;5655;48.744;9.162;2023-05-19T00:47:55;96600.97;;;13.21;100.00
11198;BME280;5655;48.744;9.162;2023-05-19T00:50:20;96602.13;;;13.20;100.00
11198;BME280;5655;48.744;9.162;2023-05-19T00:52:48;96594.06;;;13.20;100.00
11198;BME280;5655;48.744;9.162;2023-05-19T00:55:13;96602.75;;;13.02;100.00
11198;BME280;5655;48.744;9.162;2023-05-19T00:57:39;96587.41;;;13.06;100.00
11198;BME280;5655;48.744;9.162;2023-05-19T01:00:05;96600.16;;;13.16;100.00
11198;BME280;5655;48.744;9.162;2023-05-19T01:02:31;96598.84;;;13.51;100.00
11198;BME280;5655;48.744;9.162;2023-05-19T01:04:57;96599.53;;;13.34;100.00
11198;BME280;5655;48.744;9.162;2023-05-19T01:07:23;96596.13;;;13.44;100.00
11198;BME280;5655;48.744;9.162;2023-05-19T01:09:50;96595.00;;;13.48;100.00
11198;BME280;5655;48.744;9.162;2023-05-19T01:12:15;96588.94;;;13.07;100.00
11198;BME280;5655;48.744;9.162;2023-05-19T01:14:41;96580.97;;;13.14;100.00
11198;BME280;5655;48.744;9.162;2023-05-19T01:20:09;96595.34;;;13.40;100.00
11198;BME280;5655;48.744;9.162;2023-05-19T01:22:48;96594.22;;;13.41;100.00
11198;BME280;5655;48.744;9.162;2023-05-19T01:25:41;96606.56;;;13.56;100.00
11198;BME280;5655;48.744;9.162;2023-05-19T01:28:40;96593.53;;;13.58;100.00
11198;BME280;5655;48.744;9.162;2023-05-19T01:31:12;96597.28;;;13.43;100.00
11198;BME280;5655;48.744;9.162;2023-05-19T01:33:40;96605.91;;;13.73;100.00
11198;BME280;5655;48.744;9.162;2023-05-19T01:36:06;96604.19;;;13.44;100.00
11198;BME280;5655;48.744;9.162;2023-05-19T01:38:33;96616.28;;;13.13;100.00
11198;BME280;5655;48.744;9.162;2023-05-19T01:40:59;96613.50;;;13.02;100.00
11198;BME280;5655;48.744;9.162;2023-05-19T01:43:27;96614.31;;;13.10;100.00
11198;BME280;5655;48.744;9.162;2023-05-19T01:45:53;96603.91;;;13.05;100.00
11198;BME280;5655;48.744;9.162;2023-05-19T01:48:19;96604.69;;;13.05;100.00
11198;BME280;5655;48.744;9.162;2023-05-19T01:50:48;96600.38;;;12.97;100.00
11198;BME280;5655;48.744;9.162;2023-05-19T01:53:14;96597.72;;;13.01;100.00
11198;BME280;5655;48.744;9.162;2023-05-19T01:55:46;96603.56;;;13.10;100.00
11198;BME280;5655;48.744;9.162;2023-05-19T01:58:43;96601.69;;;13.14;100.00
11198;BME280;5655;48.744;9.162;2023-05-19T02:03:53;96588.34;;;12.81;100.00
11198;BME280;5655;48.744;9.162;2023-05-19T02:06:41;96598.66;;;13.15;100.00
11198;BME280;5655;48.744;9.162;2023-05-19T02:09:15;96591.88;;;12.88;100.00
11198;BME280;5655;48.744;9.162;2023-05-19T02:11:51;96594.22;;;12.93;100.00
11198;BME280;5655;48.744;9.162;2023-05-19T02:14:32;96599.09;;;12.81;100.00
11198;BME280;5655;48.744;9.162;2023-05-19T02:16:59;96591.22;;;12.58;100.00
11198;BME280;5655;48.744;9.162;2023-05-19T02:19:29;96588.72;;;12.79;100.00
11198;BME280;5655;48.744;9.162;2023-05-19T02:21:54;96604.38;;;12.70;100.00
11198;BME280;5655;48.744;9.162;2023-05-19T02:24:20;96609.22;;;12.54;100.00
11198;BME280;5655;48.744;9.162;2023-05-19T02:26:47;96603.84;;;12.54;100.00
11198;BME280;5655;48.744;9.162;2023-05-19T02:29:13;96601.59;;;12.59;100.00
11198;BME280;5655;48.744;9.162;2023-05-19T02:31:38;96610.16;;;12.72;100.00
11198;BME280;5655;48.744;9.162;2023-05-19T02:34:03;96599.66;;;12.60;100.00
11198;BME280;5655;48.744;9.162;2023-05-19T02:36:34;96604.97;;;12.93;100.00
11198;BME280;5655;48.744;9.162;2023-05-19T02:39:01;96608.59;;;12.71;100.00
11198;BME280;5655;48.744;9.162;2023-05-19T02:41:27;96607.31;;;12.58;100.00
11198;BME280;5655;48.744;9.162;2023-05-19T02:43:52;96606.41;;;12.43;100.00
11198;BME280;5655;48.744;9.162;2023-05-19T02:46:17;96601.38;;;12.38;100.00
11198;BME280;5655;48.744;9.162;2023-05-19T02:48:43;96598.28;;;12.36;100.00
11198;BME280;5655;48.744;9.162;2023-05-19T02:51:08;96597.13;;;12.34;100.00
11198;BME280;5655;48.744;9.162;2023-05-19T02:53:33;96593.94;;;12.61;100.00
11198;BME280;5655;48.744;9.162;2023-05-19T02:55:58;96590.56;;;12.68;100.00
11198;BME280;5655;48.744;9.162;2023-05-19T02:58:24;96587.41;;;12.59;100.00
11198;BME280;5655;48.744;9.162;2023-05-19T03:00:50;96586.31;;;12.30;100.00
11198;BME280;5655;48.744;9.162;2023-05-19T03:03:15;96582.22;;;12.40;100.00
11198;BME280;5655;48.744;9.162;2023-05-19T03:05:41;96581.47;;;12.43;100.00
11198;BME280;5655;48.744;9.162;2023-05-19T03:08:06;96586.09;;;12.42;100.00
11198;BME280;5655;48.744;9.162;2023-05-19T03:10:31;96581.13;;;12.48;100.00
11198;BME280;5655;48.744;9.162;2023-05-19T03:12:57;96583.28;;;12.32;100.00
11198;BME280;5655;48.744;9.162;2023-05-19T03:15:22;96589.38;;;12.25;100.00
11198;BME280;5655;48.744;9.162;2023-05-19T03:17:47;96582.47;;;12.27;100.00
11198;BME280;5655;48.744;9.162;2023-05-19T03:20:13;96580.06;;;12.15;100.00
11198;BME280;5655;48.744;9.162;2023-05-19T03:22:40;96590.97;;;12.33;100.00
11198;BME280;5655;48.744;9.162;2023-05-19T03:25:10;96586.50;;;12.48;100.00
11198;BME280;5655;48.744;9.162;2023-05-19T03:27:36;96587.06;;;12.27;100.00
11198;BME280;5655;48.744;9.162;2023-05-19T03:30:01;96582.50;;;12.31;100.00
11198;BME280;5655;48.744;9.162;2023-05-19T03:32:27;96581.81;;;12.38;100.00
11198;BME280;5655;48.744;9.162;2023-05-19T03:34:52;96585.16;;;12.27;100.00
11198;BME280;5655;48.744;9.162;2023-05-19T03:37:17;96584.28;;;12.16;100.00
11198;BME280;5655;48.744;9.162;2023-05-19T03:39:43;96587.06;;;12.27;100.00
11198;BME280;5655;48.744;9.162;2023-05-19T03:42:08;96581.19;;;12.14;100.00
11198;BME280;5655;48.744;9.162;2023-05-19T03:44:33;96587.69;;;12.13;100.00
11198;BME280;5655;48.744;9.162;2023-05-19T03:46:59;96585.31;;;12.08;100.00
11198;BME280;5655;48.744;9.162;2023-05-19T03:49:24;96587.34;;;12.18;100.00
11198;BME280;5655;48.744;9.162;2023-05-19T03:51:49;96573.53;;;11.83;100.00
11198;BME280;5655;48.744;9.162;2023-05-19T03:54:15;96579.50;;;11.99;100.00
11198;BME280;5655;48.744;9.162;2023-05-19T03:56:41;96579.94;;;12.08;100.00
11198;BME280;5655;48.744;9.162;2023-05-19T03:59:06;96581.66;;;12.23;100.00
11198;BME280;5655;48.744;9.162;2023-05-19T04:01:32;96579.94;;;12.08;100.00
11198;BME280;5655;48.744;9.162;2023-05-19T04:03:57;96582.31;;;12.13;100.00
11198;BME280;5655;48.744;9.162;2023-05-19T04:06:23;96592.16;;;12.02;100.00
11198;BME280;5655;48.744;9.162;2023-05-19T04:08:48;96588.44;;;12.10;100.00
11198;BME280;5655;48.744;9.162;2023-05-19T04:11:14;96585.56;;;11.96;100.00
11198;BME280;5655;48.744;9.162;2023-05-19T04:13:39;96584.41;;;11.94;100.00
11198;BME280;5655;48.744;9.162;2023-05-19T04:16:05;96582.88;;;11.96;100.00
11198;BME280;5655;48.744;9.162;2023-05-19T04:18:30;96594.47;;;12.04;100.00
11198;BME280;5655;48.744;9.162;2023-05-19T04:20:56;96589.72;;;11.90;100.00
11198;BME280;5655;48.744;9.162;2023-05-19T04:23:21;96595.41;;;11.85;100.00
11198;BME280;5655;48.744;9.162;2023-05-19T04:25:46;96602.31;;;11.86;100.00
11198;BME280;5655;48.744;9.162;2023-05-19T04:28:14;96586.25;;;11.60;100.00
11198;BME280;5655;48.744;9.162;2023-05-19T04:30:40;96592.81;;;11.66;100.00
11198;BME280;5655;48.744;9.162;2023-05-19T04:33:07;96588.13;;;11.56;100.00
11198;BME280;5655;48.744;9.162;2023-05-19T04:35:33;96592.78;;;11.62;100.00
11198;BME280;5655;48.744;9.162;2023-05-19T04:37:58;96591.22;;;11.88;100.00
11198;BME280;5655;48.744;9.162;2023-05-19T04:40:25;96591.41;;;11.72;100.00
11198;BME280;5655;48.744;9.162;2023-05-19T04:42:51;96589.25;;;11.55;100.00
11198;BME280;5655;48.744;9.162;2023-05-19T04:45:17;96589.22;;;11.81;100.00
11198;BME280;5655;48.744;9.162;2023-05-19T04:47:42;96590.38;;;11.80;100.00
11198;BME280;5655;48.744;9.162;2023-05-19T04:50:08;96592.38;;;11.60;100.00
11198;BME280;5655;48.744;9.162;2023-05-19T04:52:35;96600.00;;;11.58;100.00
11198;BME280;5655;48.744;9.162;2023-05-19T04:55:00;96592.47;;;11.67;100.00
11198;BME280;5655;48.744;9.162;2023-05-19T04:57:25;96593.75;;;11.73;100.00
11198;BME280;5655;48.744;9.162;2023-05-19T04:59:51;96592.47;;;11.67;100.00
11198;BME280;5655;48.744;9.162;2023-05-19T05:02:17;96594.28;;;11.60;100.00
11198;BME280;5655;48.744;9.162;2023-05-19T05:04:42;96594.41;;;11.70;100.00
11198;BME280;5655;48.744;9.162;2023-05-19T05:07:08;96594.59;;;11.81;100.00
11198;BME280;5655;48.744;9.162;2023-05-19T05:09:33;96599.22;;;11.58;100.00
11198;BME280;5655;48.744;9.162;2023-05-19T05:12:00;96601.69;;;11.70;100.00
11198;BME280;5655;48.744;9.162;2023-05-19T05:14:26;96598.44;;;11.57;100.00
11198;BME280;5655;48.744;9.162;2023-05-19T05:16:51;96594.28;;;11.86;100.00
11198;BME280;5655;48.744;9.162;2023-05-19T05:19:17;96587.56;;;11.43;100.00
11198;BME280;5655;48.744;9.162;2023-05-19T05:21:42;96591.72;;;11.70;100.00
11198;BME280;5655;48.744;9.162;2023-05-19T05:24:08;96598.75;;;11.78;100.00
11198;BME280;5655;48.744;9.162;2023-05-19T05:26:34;96586.69;;;11.65;100.00
11198;BME280;5655;48.744;9.162;2023-05-19T05:29:00;96589.00;;;11.93;100.00
11198;BME280;5655;48.744;9.162;2023-05-19T05:31:25;96588.63;;;11.65;100.00
11198;BME280;5655;48.744;9.162;2023-05-19T05:33:51;96590.59;;;11.98;100.00
11198;BME280;5655;48.744;9.162;2023-05-19T05:36:16;96585.72;;;11.77;100.00
11198;BME280;5655;48.744;9.162;2023-05-19T05:38:41;96593.97;;;11.65;100.00
11198;BME280;5655;48.744;9.162;2023-05-19T05:41:07;96594.44;;;12.00;100.00
11198;BME280;5655;48.744;9.162;2023-05-19T05:43:32;96598.44;;;12.17;100.00
11198;BME280;5655;48.744;9.162;2023-05-19T05:45:57;96596.81;;;12.09;100.00
11198;BME280;5655;48.744;9.162;2023-05-19T05:48:23;96597.34;;;11.88;100.00
11198;BME280;5655;48.744;9.162;2023-05-19T05:50:49;96602.78;;;11.95;100.00
11198;BME280;5655;48.744;9.162;2023-05-19T05:53:19;96600.06;;;11.92;100.00
11198;BME280;5655;48.744;9.162;2023-05-19T05:55:46;96609.34;;;11.98;100.00
11198;BME280;5655;48.744;9.162;2023-05-19T05:58:11;96598.94;;;11.93;100.00
11198;BME280;5655;48.744;9.162;2023-05-19T06:00:39;96607.34;;;11.91;100.00
11198;BME280;5655;48.744;9.162;2023-05-19T06:03:07;96614.72;;;12.31;100.00
11198;BME280;5655;48.744;9.162;2023-05-19T06:05:33;96616.00;;;12.07;100.00
11198;BME280;5655;48.744;9.162;2023-05-19T06:07:59;96607.75;;;12.26;100.00
11198;BME280;5655;48.744;9.162;2023-05-19T06:10:24;96617.41;;;12.68;100.00
11198;BME280;5655;48.744;9.162;2023-05-19T06:12:50;96607.28;;;12.51;100.00
11198;BME280;5655;48.744;9.162;2023-05-19T06:15:15;96612.63;;;12.51;100.00
11198;BME280;5655;48.744;9.162;2023-05-19T06:17:40;96612.91;;;12.79;100.00
11198;BME280;5655;48.744;9.162;2023-05-19T06:20:06;96604.63;;;12.98;100.00
11198;BME280;5655;48.744;9.162;2023-05-19T06:22:34;96602.44;;;13.11;100.00
11198;BME280;5655;48.744;9.162;2023-05-19T06:24:59;96606.44;;;13.35;100.00
11198;BME280;5655;48.744;9.162;2023-05-19T06:27:25;96599.97;;;12.95;100.00
11198;BME280;5655;48.744;9.162;2023-05-19T06:29:50;96596.16;;;12.96;100.00
11198;BME280;5655;48.744;9.162;2023-05-19T06:32:16;96595.31;;;12.85;100.00
11198;BME280;5655;48.744;9.162;2023-05-19T06:34:41;96597.38;;;13.02;100.00
11198;BME280;5655;48.744;9.162;2023-05-19T06:37:06;96601.56;;;13.00;100.00
11198;BME280;5655;48.744;9.162;2023-05-19T06:39:32;96604.84;;;13.27;100.00
11198;BME280;5655;48.744;9.162;2023-05-19T06:41:57;96603.22;;;13.11;100.00
11198;BME280;5655;48.744;9.162;2023-05-19T06:44:22;96601.75;;;13.25;100.00
11198;BME280;5655;48.744;9.162;2023-05-19T06:46:48;96600.50;;;13.66;100.00
11198;BME280;5655;48.744;9.162;2023-05-19T06:49:13;96606.66;;;13.70;100.00
11198;BME280;5655;48.744;9.162;2023-05-19T06:51:38;96598.25;;;13.82;100.00
11198;BME280;5655;48.744;9.162;2023-05-19T06:54:04;96607.84;;;13.76;100.00
11198;BME280;5655;48.744;9.162;2023-05-19T06:56:29;96601.38;;;13.91;100.00
11198;BME280;5655;48.744;9.162;2023-05-19T06:58:54;96602.72;;;13.50;100.00
11198;BME280;5655;48.744;9.162;2023-05-19T07:01:20;96600.59;;;13.87;100.00
11198;BME280;5655;48.744;9.162;2023-05-19T07:03:45;96604.22;;;14.27;100.00
11198;BME280;5655;48.744;9.162;2023-05-19T07:06:11;96601.56;;;14.37;100.00
11198;BME280;5655;48.744;9.162;2023-05-19T07:08:36;96603.03;;;14.24;100.00
11198;BME280;5655;48.744;9.162;2023-05-19T07:11:02;96609.91;;;14.07;100.00
11198;BME280;5655;48.744;9.162;2023-05-19T07:13:27;96598.47;;;14.32;100.00
11198;BME280;5655;48.744;9.162;2023-05-19T07:15:52;96610.88;;;14.61;100.00
11198;BME280;5655;48.744;9.162;2023-05-19T07:18:20;96603.94;;;14.53;100.00
11198;BME280;5655;48.744;9.162;2023-05-19T07:20:46;96603.13;;;14.45;100.00
11198;BME280;5655;48.744;9.162;2023-05-19T07:23:11;96603.94;;;14.64;100.00
11198;BME280;5655;48.744;9.162;2023-05-19T07:25:36;96603.16;;;14.63;100.00
11198;BME280;5655;48.744;9.162;2023-05-19T07:28:01;96601.59;;;14.41;100.00
11198;BME280;5655;48.744;9.162;2023-05-19T07:30:27;96594.22;;;14.31;100.00
11198;BME280;5655;48.744;9.162;2023-05-19T07:32:53;96593.97;;;14.78;100.00
11198;BME280;5655;48.744;9.162;2023-05-19T07:35:19;96595.13;;;14.95;100.00
11198;BME280;5655;48.744;9.162;2023-05-19T07:37:46;96597.38;;;14.54;100.00
11198;BME280;5655;48.744;9.162;2023-05-19T07:40:12;96600.91;;;14.79;100.00
11198;BME280;5655;48.744;9.162;2023-05-19T07:42:37;96600.91;;;15.04;100.00
11198;BME280;5655;48.744;9.162;2023-05-19T07:45:03;96598.53;;;14.60;100.00
11198;BME280;5655;48.744;9.162;2023-05-19T07:47:29;96593.16;;;14.60;100.00
11198;BME280;5655;48.744;9.162;2023-05-19T07:49:55;96596.28;;;14.87;100.00
11198;BME280;5655;48.744;9.162;2023-05-19T07:52:20;96589.31;;;14.93;100.00
11198;BME280;5655;48.744;9.162;2023-05-19T07:54:45;96598.56;;;15.03;100.00
11198;BME280;5655;48.744;9.162;2023-05-19T07:57:11;96595.50;;;14.86;100.00
11198;BME280;5655;48.744;9.162;2023-05-19T07:59:36;96593.56;;;15.19;100.00
11198;BME280;5655;48.744;9.162;2023-05-19T08:02:01;96592.00;;;14.68;100.00
11198;BME280;5655;48.744;9.162;2023-05-19T08:04:26;96589.72;;;14.70;100.00
11198;BME280;5655;48.744;9.162;2023-05-19T08:06:52;96588.56;;;14.82;100.00
11198;BME280;5655;48.744;9.162;2023-05-19T08:09:19;96587.41;;;14.58;100.00
11198;BME280;5655;48.744;9.162;2023-05-19T08:11:44;96582.38;;;14.67;100.00
11198;BME280;5655;48.744;9.162;2023-05-19T08:14:11;96580.47;;;14.64;100.00
11198;BME280;5655;48.744;9.162;2023-05-19T08:16:36;96573.16;;;14.61;100.00
11198;BME280;5655;48.744;9.162;2023-05-19T08:19:01;96572.38;;;14.89;100.00
11198;BME280;5655;48.744;9.162;2023-05-19T08:21:29;96582.03;;;14.83;100.00
11198;BME280;5655;48.744;9.162;2023-05-19T08:23:58;96570.06;;;15.02;100.00
11198;BME280;5655;48.744;9.162;2023-05-19T08:26:24;96572.41;;;14.99;100.00
11198;BME280;5655;48.744;9.162;2023-05-19T08:28:50;96573.94;;;14.86;100.00
11198;BME280;5655;48.744;9.162;2023-05-19T08:31:15;96572.78;;;14.91;100.00
11198;BME280;5655;48.744;9.162;2023-05-19T08:33:42;96572.41;;;14.92;100.00
11198;BME280;5655;48.744;9.162;2023-05-19T08:36:07;96566.19;;;15.38;100.00
11198;BME280;5655;48.744;9.162;2023-05-19T08:38:33;96579.31;;;15.29;100.00
11198;BME280;5655;48.744;9.162;2023-05-19T08:40:58;96579.31;;;15.15;100.00
11198;BME280;5655;48.744;9.162;2023-05-19T08:43:24;96578.56;;;15.18;100.00
11198;BME280;5655;48.744;9.162;2023-05-19T08:45:49;96571.22;;;15.22;100.00
11198;BME280;5655;48.744;9.162;2023-05-19T08:48:18;96563.91;;;15.15;100.00
11198;BME280;5655;48.744;9.162;2023-05-19T08:51:16;96560.78;;;15.49;100.00
11198;BME280;5655;48.744;9.162;2023-05-19T08:53:49;96562.31;;;15.60;100.00
11198;BME280;5655;48.744;9.162;2023-05-19T08:56:21;96564.66;;;15.51;100.00
11198;BME280;5655;48.744;9.162;2023-05-19T08:58:49;96554.66;;;15.27;100.00
11198;BME280;5655;48.744;9.162;2023-05-19T09:01:15;96560.78;;;15.41;100.00
11198;BME280;5655;48.744;9.162;2023-05-19T09:03:42;96559.59;;;15.67;100.00
11198;BME280;5655;48.744;9.162;2023-05-19T09:06:08;96568.03;;;15.76;100.00
11198;BME280;5655;48.744;9.162;2023-05-19T09:08:34;96560.41;;;15.36;100.00
11198;BME280;5655;48.744;9.162;2023-05-19T09:11:00;96562.34;;;15.32;100.00
11198;BME280;5655;48.744;9.162;2023-05-19T09:13:25;96554.25;;;15.53;100.00
11198;BME280;5655;48.744;9.162;2023-05-19T09:15:51;96555.38;;;15.45;100.00
11198;BME280;5655;48.744;9.162;2023-05-19T09:18:17;96563.16;;;15.18;100.00
11198;BME280;5655;48.744;9.162;2023-05-19T09:20:43;96564.69;;;15.23;100.00
11198;BME280;5655;48.744;9.162;2023-05-19T09:23:16;96564.63;;;15.58;100.00
11198;BME280;5655;48.744;9.162;2023-05-19T09:28:13;96563.09;;;15.36;100.00
11198;BME280;5655;48.744;9.162;2023-05-19T09:30:38;96566.94;;;15.49;100.00
11198;BME280;5655;48.744;9.162;2023-05-19T09:33:04;96563.44;;;15.63;100.00
11198;BME280;5655;48.744;9.162;2023-05-19T09:35:34;96559.59;;;15.74;100.00
11198;BME280;5655;48.744;9.162;2023-05-19T09:37:59;96559.91;;;15.83;100.00
11198;BME280;5655;48.744;9.162;2023-05-19T09:40:26;96551.41;;;15.88;100.00
11198;BME280;5655;48.744;9.162;2023-05-19T09:42:52;96561.22;;;15.15;100.00
11198;BME280;5655;48.744;9.162;2023-05-19T09:45:18;96546.94;;;15.29;100.00
11198;BME280;5655;48.744;9.162;2023-05-19T09:47:44;96553.00;;;15.82;100.00
11198;BME280;5655;48.744;9.162;2023-05-19T09:50:10;96559.94;;;15.76;100.00
11198;BME280;5655;48.744;9.162;2023-05-19T09:52:42;96555.69;;;15.75;100.00
11198;BME280;5655;48.744;9.162;2023-05-19T09:55:11;96550.63;;;15.95;100.00
11198;BME280;5655;48.744;9.162;2023-05-19T09:57:38;96553.75;;;15.79;100.00
11198;BME280;5655;48.744;9.162;2023-05-19T10:00:06;96546.72;;;16.07;100.00
11198;BME280;5655;48.744;9.162;2023-05-19T10:02:40;96549.94;;;15.73;100.00
11198;BME280;5655;48.744;9.162;2023-05-19T10:05:07;96544.50;;;15.80;100.00
11198;BME280;5655;48.744;9.162;2023-05-19T10:07:34;96552.94;;;15.93;100.00
11198;BME280;5655;48.744;9.162;2023-05-19T10:09:59;96545.25;;;15.84;100.00
11198;BME280;5655;48.744;9.162;2023-05-19T10:12:25;96547.53;;;15.93;100.00
11198;BME280;5655;48.744;9.162;2023-05-19T10:14:50;96545.28;;;15.81;100.00
11198;BME280;5655;48.744;9.162;2023-05-19T10:17:18;96549.16;;;15.76;100.00
11198;BME280;5655;48.744;9.162;2023-05-19T10:19:44;96544.81;;;15.97;100.00
11198;BME280;5655;48.744;9.162;2023-05-19T10:22:10;96550.94;;;16.11;100.00
11198;BME280;5655;48.744;9.162;2023-05-19T10:24:35;96543.03;;;15.65;100.00
11198;BME280;5655;48.744;9.162;2023-05-19T10:27:04;96552.91;;;16.04;100.00
11198;BME280;5655;48.744;9.162;2023-05-19T10:29:35;96547.38;;;16.25;100.00
11198;BME280;5655;48.744;9.162;2023-05-19T10:32:06;96544.97;;;16.41;100.00
11198;BME280;5655;48.744;9.162;2023-05-19T10:37:33;96548.25;;;16.01;100.00
11198;BME280;5655;48.744;9.162;2023-05-19T10:40:06;96546.81;;;15.85;100.00
11198;BME280;5655;48.744;9.162;2023-05-19T10:42:44;96543.19;;;16.17;100.00
11198;BME280;5655;48.744;9.162;2023-05-19T10:45:18;96547.63;;;15.68;100.00
11198;BME280;5655;48.744;9.162;2023-05-19T10:47:44;96539.91;;;15.77;100.00
11198;BME280;5655;48.744;9.162;2023-05-19T10:50:10;96542.19;;;15.86;100.00
11198;BME280;5655;48.744;9.162;2023-05-19T10:52:36;96530.94;;;15.98;100.00
11198;BME280;5655;48.744;9.162;2023-05-19T10:55:02;96541.25;;;16.14;100.00
11198;BME280;5655;48.744;9.162;2023-05-19T10:57:29;96537.56;;;15.83;100.00
11198;BME280;5655;48.744;9.162;2023-05-19T10:59:57;96537.63;;;15.69;100.00
11198;BME280;5655;48.744;9.162;2023-05-19T11:02:41;96538.91;;;16.26;100.00
11198;BME280;5655;48.744;9.162;2023-05-19T11:05:15;96541.94;;;16.32;100.00
11198;BME280;5655;48.744;9.162;2023-05-19T11:08:04;96535.72;;;16.39;100.00
11198;BME280;5655;48.744;9.162;2023-05-19T11:10:31;96536.66;;;16.11;100.00
11198;BME280;5655;48.744;9.162;2023-05-19T11:12:57;96543.22;;;16.13;100.00
11198;BME280;5655;48.744;9.162;2023-05-19T11:15:26;96541.94;;;16.32;100.00
11198;BME280;5655;48.744;9.162;2023-05-19T11:17:52;96534.63;;;16.29;100.00
11198;BME280;5655;48.744;9.162;2023-05-19T11:20:21;96545.16;;;16.06;100.00
11198;BME280;5655;48.744;9.162;2023-05-19T11:25:47;96549.56;;;16.44;100.00
11198;BME280;5655;48.744;9.162;2023-05-19T11:28:20;96540.41;;;16.27;100.00
11198;BME280;5655;48.744;9.162;2023-05-19T11:30:50;96535.59;;;15.91;100.00
11198;BME280;5655;48.744;9.162;2023-05-19T11:33:18;96542.78;;;16.22;100.00
11198;BME280;5655;48.744;9.162;2023-05-19T11:35:46;96538.25;;;16.05;100.00
11198;BME280;5655;48.744;9.162;2023-05-19T11:38:12;96543.63;;;16.01;100.00
11198;BME280;5655;48.744;9.162;2023-05-19T11:40:39;96542.16;;;15.89;100.00
11198;BME280;5655;48.744;9.162;2023-05-19T11:43:06;96545.59;;;15.97;100.00
11198;BME280;5655;48.744;9.162;2023-05-19T11:45:31;96539.09;;;15.87;100.00
11198;BME280;5655;48.744;9.162;2023-05-19T11:47:58;96537.47;;;16.04;100.00
11198;BME280;5655;48.744;9.162;2023-05-19T11:50:23;96538.19;;;16.12;100.00
11198;BME280;5655;48.744;9.162;2023-05-19T11:52:50;96531.53;;;16.27;100.00
11198;BME280;5655;48.744;9.162;2023-05-19T11:55:20;96528.75;;;16.41;100.00
11198;BME280;5655;48.744;9.162;2023-05-19T11:57:55;96517.16;;;16.44;100.00
11198;BME280;5655;48.744;9.162;2023-05-19T12:00:34;96526.44;;;16.43;100.00
11198;BME280;5655;48.744;9.162;2023-05-19T12:03:03;96524.19;;;16.31;100.00
11198;BME280;5655;48.744;9.162;2023-05-19T12:05:28;96522.84;;;15.98;100.00
11198;BME280;5655;48.744;9.162;2023-05-19T12:07:55;96524.16;;;16.38;100.00
11198;BME280;5655;48.744;9.162;2023-05-19T12:10:29;96517.38;;;16.09;100.00
11198;BME280;5655;48.744;9.162;2023-05-19T12:12:55;96525.22;;;15.85;100.00
11198;BME280;5655;48.744;9.162;2023-05-19T12:15:23;96521.19;;;16.22;100.00
11198;BME280;5655;48.744;9.162;2023-05-19T12:17:58;96523.44;;;16.27;100.00
11198;BME280;5655;48.744;9.162;2023-05-19T12:20:25;96527.06;;;16.03;100.00
11198;BME280;5655;48.744;9.162;2023-05-19T12:22:52;96522.50;;;16.55;100.00
11198;BME280;5655;48.744;9.162;2023-05-19T12:25:18;96528.22;;;16.67;100.00
11198;BME280;5655;48.744;9.162;2023-05-19T12:27:44;96534.53;;;16.40;100.00
11198;BME280;5655;48.744;9.162;2023-05-19T12:30:10;96531.09;;;16.35;100.00
11198;BME280;5655;48.744;9.162;2023-05-19T12:32:37;96541.13;;;16.39;100.00
11198;BME280;5655;48.744;9.162;2023-05-19T12:35:04;96539.59;;;16.38;100.00
11198;BME280;5655;48.744;9.162;2023-05-19T12:37:30;96536.59;;;16.25;100.00
11198;BME280;5655;48.744;9.162;2023-05-19T12:39:57;96532.09;;;15.94;100.00
11198;BME280;5655;48.744;9.162;2023-05-19T12:42:25;96530.78;;;16.23;100.00
11198;BME280;5655;48.744;9.162;2023-05-19T12:44:55;96528.56;;;16.07;100.00
11198;BME280;5655;48.744;9.162;2023-05-19T12:47:21;96526.47;;;16.36;100.00
11198;BME280;5655;48.744;9.162;2023-05-19T12:50:00;96535.72;;;16.42;100.00
11198;BME280;5655;48.744;9.162;2023-05-19T12:52:27;96530.38;;;16.28;100.00
11198;BME280;5655;48.744;9.162;2023-05-19T12:55:04;96539.09;;;16.53;100.00
11198;BME280;5655;48.744;9.162;2023-05-19T12:57:33;96532.69;;;16.33;100.00
11198;BME280;5655;48.744;9.162;2023-05-19T13:00:00;96524.88;;;16.46;100.00
11198;BME280;5655;48.744;9.162;2023-05-19T13:02:25;96530.31;;;16.42;100.00
11198;BME280;5655;48.744;9.162;2023-05-19T13:04:51;96535.59;;;16.63;100.00
11198;BME280;5655;48.744;9.162;2023-05-19T13:07:19;96542.25;;;16.41;100.00
11198;BME280;5655;48.744;9.162;2023-05-19T13:09:44;96536.59;;;16.25;100.00
11198;BME280;5655;48.744;9.162;2023-05-19T13:12:10;96534.03;;;15.97;100.00
11198;BME280;5655;48.744;9.162;2023-05-19T13:14:35;96527.28;;;16.33;100.00